Wetterdaten: Woche 27.06.16 - 03.07.16 (KW26)
Datum Zeit Temp. A. Temp. A. max Feuchte A. Luftdruck Regen Wind Richtung Sonnenschein ET UV Solar Taupunkt Windben
27.06.2016 00:00 10,9 C 11,0 C 97 % 1020,0 hPa 2,0 mm 0,4 km/h (0 Bft) W 0,00 h 0,000 mm 0,0 UV-I 0 W/m 10,4 C 1,1 km/h (1 Bft)
27.06.2016 01:00 10,9 C 10,9 C 97 % 1019,8 hPa 2,2 mm 0,3 km/h (0 Bft) O-SO 0,00 h 0,000 mm 0,0 UV-I 0 W/m 10,4 C 1,3 km/h (1 Bft)
27.06.2016 02:00 10,9 C 10,9 C 97 % 1019,5 hPa 0,4 mm 0,6 km/h (0 Bft) O-NO 0,00 h 0,000 mm 0,0 UV-I 0 W/m 10,5 C 1,7 km/h (1 Bft)
27.06.2016 03:00 11,0 C 11,1 C 97 % 1019,6 hPa 0,0 mm 0,7 km/h (0 Bft) O-NO 0,00 h 0,000 mm 0,0 UV-I 0 W/m 10,6 C 1,5 km/h (1 Bft)
27.06.2016 04:00 11,0 C 11,0 C 97 % 1020,1 hPa 0,8 mm 1,3 km/h (1 Bft) S 0,00 h 0,000 mm 0,0 UV-I 0 W/m 10,6 C 2,7 km/h (1 Bft)
27.06.2016 05:00 11,1 C 11,1 C 96 % 1020,5 hPa 0,2 mm 1,8 km/h (1 Bft) S 0,00 h 0,000 mm 0,0 UV-I 6 W/m 10,5 C 3,8 km/h (1 Bft)
27.06.2016 06:00 11,0 C 11,0 C 96 % 1020,7 hPa 0,0 mm 0,9 km/h (0 Bft) S 0,00 h 0,000 mm 0,0 UV-I 27 W/m 10,4 C 2,5 km/h (1 Bft)
27.06.2016 07:00 11,6 C 11,6 C 96 % 1021,0 hPa 0,0 mm 1,1 km/h (0 Bft) W-SW 0,00 h 0,025 mm 0,5 UV-I 70 W/m 10,9 C 2,4 km/h (1 Bft)
27.06.2016 08:00 12,7 C 12,7 C 93 % 1021,2 hPa 0,0 mm 2,0 km/h (1 Bft) W 0,02 h 0,026 mm 1,3 UV-I 169 W/m 11,6 C 3,6 km/h (1 Bft)
27.06.2016 09:00 13,9 C 13,9 C 87 % 1021,3 hPa 0,0 mm 5,5 km/h (1 Bft) W 0,33 h 0,101 mm 1,9 UV-I 331 W/m 11,7 C 8,8 km/h (2 Bft)
27.06.2016 10:00 14,1 C 14,1 C 86 % 1021,4 hPa 0,0 mm 4,2 km/h (1 Bft) W 0,18 h 0,153 mm 2,6 UV-I 333 W/m 11,8 C 7,0 km/h (2 Bft)
27.06.2016 11:00 14,9 C 14,9 C 80 % 1021,4 hPa 0,0 mm 3,2 km/h (1 Bft) W 0,28 h 0,178 mm 3,1 UV-I 360 W/m 11,4 C 5,4 km/h (1 Bft)
27.06.2016 12:00 15,5 C 15,5 C 73 % 1021,2 hPa 0,0 mm 3,2 km/h (1 Bft) W-NW 0,15 h 0,203 mm 3,3 UV-I 351 W/m 10,6 C 5,2 km/h (1 Bft)
27.06.2016 13:00 15,7 C 15,7 C 74 % 1021,1 hPa 0,0 mm 3,8 km/h (1 Bft) W-SW 0,30 h 0,203 mm 3,6 UV-I 429 W/m 11,1 C 6,3 km/h (2 Bft)
27.06.2016 14:00 17,7 C 17,7 C 64 % 1020,5 hPa 0,0 mm 7,0 km/h (2 Bft) W-SW 0,82 h 0,229 mm 6,3 UV-I 815 W/m 10,8 C 12,1 km/h (2 Bft)
27.06.2016 15:00 17,9 C 18,0 C 61 % 1020,2 hPa 0,0 mm 7,8 km/h (2 Bft) W-NW 0,80 h 0,457 mm 5,0 UV-I 738 W/m 10,2 C 12,4 km/h (3 Bft)
27.06.2016 16:00 17,7 C 17,8 C 60 % 1020,0 hPa 0,0 mm 7,4 km/h (2 Bft) W 0,33 h 0,406 mm 3,0 UV-I 353 W/m 9,8 C 11,3 km/h (2 Bft)
27.06.2016 17:00 17,7 C 17,8 C 60 % 1019,8 hPa 0,0 mm 5,4 km/h (1 Bft) W 0,00 h 0,229 mm 1,6 UV-I 137 W/m 9,8 C 8,8 km/h (2 Bft)
27.06.2016 18:00 18,5 C 18,6 C 50 % 1019,7 hPa 0,0 mm 8,4 km/h (2 Bft) W 0,32 h 0,102 mm 1,3 UV-I 154 W/m 8,0 C 13,1 km/h (3 Bft)
27.06.2016 19:00 17,1 C 17,1 C 58 % 1019,8 hPa 0,0 mm 2,4 km/h (1 Bft) W-SW 0,25 h 0,152 mm 1,1 UV-I 95 W/m 8,7 C 4,5 km/h (1 Bft)
27.06.2016 20:00 15,9 C 15,9 C 67 % 1020,0 hPa 0,0 mm 1,6 km/h (1 Bft) S 0,00 h 0,076 mm 0,0 UV-I 23 W/m 9,7 C 3,0 km/h (1 Bft)
27.06.2016 21:00 14,8 C 14,8 C 72 % 1020,5 hPa 0,0 mm 2,9 km/h (1 Bft) S-SO 0,00 h 0,025 mm 0,0 UV-I 5 W/m 9,8 C 4,8 km/h (1 Bft)
27.06.2016 22:00 13,8 C 13,8 C 78 % 1020,7 hPa 0,0 mm 1,1 km/h (1 Bft) S-SO 0,00 h 0,026 mm 0,0 UV-I 0 W/m 10,1 C 2,3 km/h (1 Bft)
27.06.2016 23:00 13,5 C 13,5 C 80 % 1020,6 hPa 0,0 mm 1,2 km/h (1 Bft) SO 0,00 h 0,025 mm 0,0 UV-I 0 W/m 10,1 C 2,4 km/h (1 Bft)
28.06.2016 00:00 13,3 C 13,3 C 80 % 1020,5 hPa 0,0 mm 0,4 km/h (0 Bft) SO 0,00 h 0,000 mm 0,0 UV-I 0 W/m 10,0 C 1,1 km/h (1 Bft)
28.06.2016 01:00 13,0 C 13,0 C 82 % 1020,3 hPa 0,0 mm 0,5 km/h (0 Bft) SO 0,00 h 0,025 mm 0,0 UV-I 0 W/m 9,9 C 1,3 km/h (1 Bft)
28.06.2016 02:00 12,7 C 12,7 C 82 % 1020,0 hPa 0,0 mm 0,5 km/h (0 Bft) O-NO 0,00 h 0,026 mm 0,0 UV-I 0 W/m 9,7 C 1,4 km/h (1 Bft)
28.06.2016 03:00 12,7 C 12,7 C 80 % 1019,6 hPa 0,0 mm 1,0 km/h (0 Bft) SO 0,00 h 0,025 mm 0,0 UV-I 0 W/m 9,4 C 2,5 km/h (1 Bft)
28.06.2016 04:00 12,3 C 12,3 C 82 % 1019,2 hPa 0,0 mm 0,6 km/h (0 Bft) W 0,00 h 0,026 mm 0,0 UV-I 0 W/m 9,2 C 1,6 km/h (1 Bft)
28.06.2016 05:00 11,8 C 11,8 C 84 % 1019,2 hPa 0,0 mm 0,1 km/h (0 Bft) S-SW 0,00 h 0,025 mm 0,0 UV-I 12 W/m 9,1 C 0,1 km/h (0 Bft)
28.06.2016 06:00 12,1 C 12,1 C 84 % 1019,0 hPa 0,0 mm 0,2 km/h (0 Bft) W-SW 0,02 h 0,000 mm 0,5 UV-I 58 W/m 9,5 C 0,7 km/h (0 Bft)
28.06.2016 07:00 13,7 C 13,8 C 79 % 1019,0 hPa 0,0 mm 0,6 km/h (0 Bft) N-NO 0,50 h 0,025 mm 1,1 UV-I 195 W/m 10,2 C 1,6 km/h (1 Bft)
28.06.2016 08:00 16,4 C 16,4 C 70 % 1018,9 hPa 0,0 mm 1,0 km/h (0 Bft) N 0,90 h 0,102 mm 2,4 UV-I 415 W/m 11,0 C 2,0 km/h (1 Bft)
28.06.2016 09:00 18,3 C 18,3 C 58 % 1018,7 hPa 0,0 mm 3,5 km/h (1 Bft) NW 1,00 h 0,229 mm 3,9 UV-I 599 W/m 9,9 C 5,5 km/h (1 Bft)
28.06.2016 10:00 19,1 C 19,2 C 53 % 1018,5 hPa 0,0 mm 3,4 km/h (1 Bft) NW 1,00 h 0,355 mm 5,4 UV-I 749 W/m 9,3 C 5,4 km/h (1 Bft)
28.06.2016 11:00 19,9 C 19,9 C 51 % 1018,1 hPa 0,0 mm 3,5 km/h (1 Bft) NO 1,00 h 0,457 mm 6,6 UV-I 822 W/m 9,4 C 5,7 km/h (1 Bft)
28.06.2016 12:00 20,7 C 20,7 C 50 % 1017,7 hPa 0,0 mm 4,3 km/h (1 Bft) N 0,93 h 0,508 mm 7,4 UV-I 894 W/m 9,8 C 7,0 km/h (2 Bft)
28.06.2016 13:00 21,0 C 21,1 C 50 % 1017,2 hPa 0,0 mm 4,3 km/h (1 Bft) O-NO 0,78 h 0,534 mm 7,0 UV-I 847 W/m 10,2 C 7,1 km/h (2 Bft)
28.06.2016 14:00 21,9 C 21,9 C 49 % 1016,4 hPa 0,0 mm 4,0 km/h (1 Bft) NW 1,00 h 0,508 mm 7,4 UV-I 949 W/m 10,6 C 6,8 km/h (2 Bft)
28.06.2016 15:00 21,9 C 22,0 C 48 % 1015,7 hPa 0,0 mm 5,1 km/h (1 Bft) NO 0,77 h 0,559 mm 5,3 UV-I 707 W/m 10,5 C 8,7 km/h (2 Bft)
28.06.2016 16:00 21,2 C 21,2 C 53 % 1015,5 hPa 0,0 mm 3,1 km/h (1 Bft) O 0,07 h 0,431 mm 2,4 UV-I 171 W/m 11,2 C 4,9 km/h (1 Bft)
28.06.2016 17:00 21,8 C 21,8 C 51 % 1015,0 hPa 0,0 mm 3,7 km/h (1 Bft) N 0,00 h 0,127 mm 1,8 UV-I 128 W/m 11,0 C 5,8 km/h (2 Bft)
28.06.2016 18:00 22,0 C 22,0 C 50 % 1014,5 hPa 0,0 mm 3,6 km/h (1 Bft) NO 0,28 h 0,102 mm 1,4 UV-I 137 W/m 11,0 C 5,7 km/h (1 Bft)
28.06.2016 19:00 21,5 C 21,6 C 54 % 1014,2 hPa 0,0 mm 3,1 km/h (1 Bft) O-NO 1,00 h 0,127 mm 0,8 UV-I 191 W/m 11,8 C 5,2 km/h (1 Bft)
28.06.2016 20:00 19,7 C 19,8 C 61 % 1014,1 hPa 0,0 mm 1,4 km/h (1 Bft) O-NO 0,10 h 0,127 mm 0,5 UV-I 34 W/m 11,9 C 2,5 km/h (1 Bft)
28.06.2016 21:00 16,5 C 16,6 C 75 % 1014,3 hPa 0,0 mm 1,3 km/h (1 Bft) S-SO 0,00 h 0,025 mm 0,0 UV-I 6 W/m 12,0 C 2,5 km/h (1 Bft)
28.06.2016 22:00 15,1 C 15,1 C 80 % 1014,4 hPa 0,0 mm 0,8 km/h (0 Bft) S-SO 0,00 h 0,000 mm 0,0 UV-I 0 W/m 11,6 C 2,0 km/h (1 Bft)
28.06.2016 23:00 15,0 C 15,0 C 79 % 1014,2 hPa 0,0 mm 0,3 km/h (0 Bft) S 0,00 h 0,026 mm 0,0 UV-I 0 W/m 11,4 C 1,1 km/h (0 Bft)
29.06.2016 00:00 14,4 C 14,4 C 80 % 1014,0 hPa 0,0 mm 0,3 km/h (0 Bft) W-SW 0,00 h 0,000 mm 0,0 UV-I 0 W/m 11,0 C 1,1 km/h (0 Bft)
29.06.2016 01:00 14,1 C 14,1 C 81 % 1014,0 hPa 0,0 mm 0,3 km/h (0 Bft) W-SW 0,00 h 0,025 mm 0,0 UV-I 0 W/m 10,9 C 0,9 km/h (0 Bft)
29.06.2016 02:00 13,7 C 13,7 C 82 % 1013,8 hPa 0,0 mm 0,5 km/h (0 Bft) W-NW 0,00 h 0,026 mm 0,0 UV-I 0 W/m 10,7 C 1,5 km/h (1 Bft)
29.06.2016 03:00 13,2 C 13,2 C 85 % 1013,8 hPa 0,0 mm 0,2 km/h (0 Bft) N-NW 0,00 h 0,025 mm 0,0 UV-I 0 W/m 10,7 C 0,7 km/h (0 Bft)
29.06.2016 04:00 13,4 C 13,4 C 84 % 1014,2 hPa 0,0 mm 0,9 km/h (0 Bft) SO 0,00 h 0,000 mm 0,0 UV-I 0 W/m 10,7 C 2,2 km/h (1 Bft)
29.06.2016 05:00 14,4 C 14,5 C 79 % 1014,4 hPa 0,0 mm 2,7 km/h (1 Bft) S 0,00 h 0,026 mm 0,0 UV-I 11 W/m 10,9 C 4,8 km/h (1 Bft)
29.06.2016 06:00 14,3 C 14,3 C 82 % 1014,6 hPa 0,0 mm 1,7 km/h (1 Bft) S 0,02 h 0,025 mm 0,6 UV-I 42 W/m 11,3 C 3,3 km/h (1 Bft)
29.06.2016 07:00 15,7 C 15,7 C 80 % 1014,7 hPa 0,0 mm 1,7 km/h (1 Bft) W 0,47 h 0,025 mm 1,1 UV-I 186 W/m 12,2 C 3,2 km/h (1 Bft)
29.06.2016 08:00 18,5 C 18,5 C 72 % 1014,9 hPa 0,0 mm 6,7 km/h (2 Bft) W-NW 0,48 h 0,102 mm 2,1 UV-I 318 W/m 13,3 C 10,7 km/h (2 Bft)
29.06.2016 09:00 19,7 C 19,7 C 70 % 1014,7 hPa 0,0 mm 6,2 km/h (2 Bft) W 0,63 h 0,203 mm 3,2 UV-I 472 W/m 14,0 C 10,3 km/h (2 Bft)
29.06.2016 10:00 20,2 C 20,2 C 66 % 1014,6 hPa 0,0 mm 8,9 km/h (2 Bft) W-NW 0,35 h 0,280 mm 3,9 UV-I 428 W/m 13,7 C 13,9 km/h (3 Bft)
29.06.2016 11:00 19,7 C 19,8 C 68 % 1014,8 hPa 0,0 mm 8,1 km/h (2 Bft) W-NW 0,17 h 0,330 mm 2,9 UV-I 319 W/m 13,6 C 13,0 km/h (3 Bft)
29.06.2016 12:00 19,8 C 19,8 C 69 % 1014,8 hPa 0,0 mm 5,8 km/h (2 Bft) NW 0,07 h 0,228 mm 3,1 UV-I 330 W/m 13,9 C 9,0 km/h (2 Bft)
29.06.2016 13:00 20,1 C 20,1 C 68 % 1014,6 hPa 0,0 mm 4,9 km/h (1 Bft) W-NW 0,35 h 0,229 mm 4,2 UV-I 433 W/m 13,9 C 7,9 km/h (2 Bft)
29.06.2016 14:00 20,4 C 20,4 C 67 % 1014,3 hPa 0,0 mm 3,5 km/h (1 Bft) NW 0,10 h 0,279 mm 3,6 UV-I 381 W/m 14,1 C 5,5 km/h (1 Bft)
29.06.2016 15:00 20,9 C 20,9 C 66 % 1013,9 hPa 0,0 mm 2,7 km/h (1 Bft) NO 0,50 h 0,229 mm 3,9 UV-I 459 W/m 14,4 C 4,5 km/h (1 Bft)
29.06.2016 16:00 21,4 C 21,4 C 63 % 1013,3 hPa 0,0 mm 2,6 km/h (1 Bft) O-NO 0,27 h 0,279 mm 3,1 UV-I 250 W/m 14,2 C 4,5 km/h (1 Bft)
29.06.2016 17:00 22,0 C 22,1 C 63 % 1012,7 hPa 0,0 mm 4,6 km/h (1 Bft) O-NO 0,00 h 0,153 mm 2,0 UV-I 124 W/m 14,6 C 7,8 km/h (2 Bft)
29.06.2016 18:00 22,2 C 22,2 C 64 % 1012,1 hPa 0,0 mm 4,4 km/h (1 Bft) O-NO 0,28 h 0,101 mm 1,4 UV-I 134 W/m 15,0 C 7,0 km/h (2 Bft)
29.06.2016 19:00 21,8 C 21,9 C 64 % 1012,1 hPa 0,0 mm 3,4 km/h (1 Bft) NO 0,57 h 0,102 mm 0,9 UV-I 147 W/m 14,7 C 5,6 km/h (1 Bft)
29.06.2016 20:00 20,5 C 20,5 C 72 % 1012,4 hPa 0,0 mm 1,1 km/h (1 Bft) SO 0,00 h 0,102 mm 0,0 UV-I 33 W/m 15,2 C 2,2 km/h (1 Bft)
29.06.2016 21:00 18,4 C 18,5 C 80 % 1012,6 hPa 0,0 mm 0,8 km/h (0 Bft) SO 0,00 h 0,025 mm 0,0 UV-I 5 W/m 14,9 C 1,4 km/h (1 Bft)
29.06.2016 22:00 17,2 C 17,2 C 84 % 1012,8 hPa 0,0 mm 0,7 km/h (0 Bft) SO 0,00 h 0,000 mm 0,0 UV-I 0 W/m 14,5 C 1,7 km/h (1 Bft)
29.06.2016 23:00 17,1 C 17,2 C 84 % 1012,9 hPa 0,0 mm 0,1 km/h (0 Bft) N 0,00 h 0,025 mm 0,0 UV-I 0 W/m 14,5 C 0,2 km/h (0 Bft)
30.06.2016 00:00 16,2 C 16,3 C 87 % 1012,3 hPa 0,0 mm 0,3 km/h (0 Bft) O-SO 0,00 h 0,000 mm 0,0 UV-I 0 W/m 14,1 C 0,8 km/h (0 Bft)
30.06.2016 01:00 16,2 C 16,2 C 87 % 1011,7 hPa 0,0 mm 0,6 km/h (0 Bft) N 0,00 h 0,000 mm 0,0 UV-I 0 W/m 14,1 C 1,6 km/h (1 Bft)
30.06.2016 02:00 16,2 C 16,2 C 87 % 1011,6 hPa 0,0 mm 0,6 km/h (0 Bft) N-NW 0,00 h 0,000 mm 0,0 UV-I 0 W/m 14,0 C 1,7 km/h (1 Bft)
30.06.2016 03:00 16,3 C 16,3 C 86 % 1012,0 hPa 0,0 mm 1,8 km/h (1 Bft) W 0,00 h 0,000 mm 0,0 UV-I 0 W/m 13,8 C 3,3 km/h (1 Bft)
30.06.2016 04:00 17,1 C 17,1 C 83 % 1012,9 hPa 0,0 mm 7,2 km/h (2 Bft) W-SW 0,00 h 0,025 mm 0,0 UV-I 0 W/m 14,2 C 12,3 km/h (3 Bft)
30.06.2016 05:00 16,4 C 16,5 C 83 % 1013,3 hPa 0,0 mm 1,9 km/h (1 Bft) W 0,00 h 0,026 mm 0,0 UV-I 15 W/m 13,6 C 3,5 km/h (1 Bft)
30.06.2016 06:00 16,7 C 16,7 C 81 % 1013,7 hPa 0,0 mm 1,8 km/h (1 Bft) S 0,00 h 0,000 mm 0,0 UV-I 15 W/m 13,3 C 3,4 km/h (1 Bft)
30.06.2016 07:00 16,6 C 16,7 C 79 % 1014,3 hPa 0,4 mm 6,8 km/h (2 Bft) W-SW 0,00 h 0,025 mm 0,0 UV-I 19 W/m 12,9 C 11,5 km/h (2 Bft)
30.06.2016 08:00 14,8 C 14,9 C 91 % 1014,7 hPa 1,2 mm 2,1 km/h (1 Bft) S 0,00 h 0,026 mm 0,0 UV-I 30 W/m 13,5 C 3,6 km/h (1 Bft)
30.06.2016 09:00 15,0 C 15,0 C 92 % 1014,8 hPa 0,6 mm 1,9 km/h (1 Bft) O-SO 0,00 h 0,025 mm 0,6 UV-I 68 W/m 13,7 C 3,1 km/h (1 Bft)
30.06.2016 10:00 16,0 C 16,0 C 93 % 1014,6 hPa 0,2 mm 2,8 km/h (1 Bft) O-NO 0,12 h 0,025 mm 2,3 UV-I 252 W/m 14,9 C 4,3 km/h (1 Bft)
30.06.2016 11:00 18,5 C 18,5 C 84 % 1014,7 hPa 0,0 mm 3,4 km/h (1 Bft) N 0,68 h 0,153 mm 4,6 UV-I 595 W/m 15,6 C 5,2 km/h (1 Bft)
30.06.2016 12:00 20,4 C 20,4 C 73 % 1014,8 hPa 0,0 mm 6,3 km/h (2 Bft) W-NW 0,68 h 0,355 mm 6,5 UV-I 791 W/m 15,3 C 10,4 km/h (2 Bft)
30.06.2016 13:00 20,7 C 20,7 C 67 % 1014,7 hPa 0,0 mm 7,2 km/h (2 Bft) W 0,17 h 0,483 mm 5,4 UV-I 491 W/m 14,2 C 12,0 km/h (2 Bft)
30.06.2016 14:00 21,1 C 21,2 C 66 % 1014,3 hPa 0,0 mm 4,9 km/h (1 Bft) W-NW 0,50 h 0,356 mm 5,5 UV-I 690 W/m 14,6 C 7,9 km/h (2 Bft)
30.06.2016 15:00 21,2 C 21,2 C 65 % 1014,2 hPa 0,0 mm 3,0 km/h (1 Bft) W 0,00 h 0,406 mm 2,9 UV-I 298 W/m 14,3 C 4,8 km/h (1 Bft)
30.06.2016 16:00 20,8 C 20,8 C 68 % 1014,0 hPa 0,0 mm 2,3 km/h (1 Bft) N 0,00 h 0,203 mm 1,6 UV-I 170 W/m 14,6 C 4,1 km/h (1 Bft)
30.06.2016 17:00 20,7 C 20,8 C 69 % 1013,9 hPa 0,0 mm 1,9 km/h (1 Bft) N-NO 0,00 h 0,102 mm 1,2 UV-I 127 W/m 14,9 C 3,5 km/h (1 Bft)
30.06.2016 18:00 19,9 C 19,9 C 74 % 1014,0 hPa 0,0 mm 1,1 km/h (1 Bft) N 0,00 h 0,076 mm 0,0 UV-I 32 W/m 15,2 C 2,5 km/h (1 Bft)
30.06.2016 19:00 18,2 C 18,3 C 83 % 1014,5 hPa 7,2 mm 2,2 km/h (1 Bft) O-SO 0,00 h 0,025 mm 0,0 UV-I 15 W/m 15,2 C 3,9 km/h (1 Bft)
30.06.2016 20:00 14,8 C 14,8 C 92 % 1015,3 hPa 2,2 mm 2,7 km/h (1 Bft) W 0,00 h 0,000 mm 0,0 UV-I 7 W/m 13,6 C 5,5 km/h (1 Bft)
30.06.2016 21:00 14,1 C 14,1 C 94 % 1015,8 hPa 4,2 mm 1,6 km/h (1 Bft) S-SW 0,00 h 0,000 mm 0,0 UV-I 0 W/m 13,2 C 3,2 km/h (1 Bft)
30.06.2016 22:00 14,1 C 14,1 C 95 % 1016,0 hPa 0,0 mm 1,3 km/h (1 Bft) NW 0,00 h 0,000 mm 0,0 UV-I 0 W/m 13,3 C 3,0 km/h (1 Bft)
30.06.2016 23:00 14,5 C 14,5 C 94 % 1016,8 hPa 0,8 mm 2,3 km/h (1 Bft) S 0,00 h 0,000 mm 0,0 UV-I 0 W/m 13,5 C 4,4 km/h (1 Bft)
01.07.2016 00:00 13,9 C 14,0 C 95 % 1016,6 hPa 0,0 mm 1,7 km/h (1 Bft) O 0,00 h 0,000 mm 0,0 UV-I 0 W/m 13,1 C 3,3 km/h (1 Bft)
01.07.2016 01:00 13,2 C 13,2 C 96 % 1016,5 hPa 0,0 mm 1,0 km/h (0 Bft) W-SW 0,00 h 0,000 mm 0,0 UV-I 0 W/m 12,6 C 2,3 km/h (1 Bft)
01.07.2016 02:00 13,0 C 13,0 C 95 % 1016,5 hPa 0,0 mm 2,3 km/h (1 Bft) W 0,00 h 0,000 mm 0,0 UV-I 0 W/m 12,3 C 4,1 km/h (1 Bft)
01.07.2016 03:00 12,9 C 12,9 C 95 % 1016,6 hPa 0,0 mm 1,6 km/h (1 Bft) W 0,00 h 0,000 mm 0,0 UV-I 0 W/m 12,1 C 3,4 km/h (1 Bft)
01.07.2016 04:00 12,7 C 12,7 C 94 % 1016,7 hPa 0,0 mm 2,2 km/h (1 Bft) SO 0,00 h 0,000 mm 0,0 UV-I 0 W/m 11,8 C 4,0 km/h (1 Bft)
01.07.2016 05:00 12,5 C 12,5 C 94 % 1016,9 hPa 0,0 mm 1,7 km/h (1 Bft) S 0,00 h 0,000 mm 0,0 UV-I 10 W/m 11,6 C 3,4 km/h (1 Bft)
01.07.2016 06:00 12,7 C 12,7 C 95 % 1017,3 hPa 0,0 mm 0,8 km/h (0 Bft) O-SO 0,28 h 0,000 mm 0,5 UV-I 72 W/m 11,9 C 1,9 km/h (1 Bft)
01.07.2016 07:00 14,8 C 14,8 C 92 % 1017,3 hPa 0,0 mm 1,0 km/h (0 Bft) O 1,00 h 0,025 mm 1,1 UV-I 228 W/m 13,5 C 2,2 km/h (1 Bft)
01.07.2016 08:00 17,3 C 17,3 C 85 % 1017,4 hPa 0,0 mm 0,7 km/h (0 Bft) O 1,00 h 0,127 mm 2,2 UV-I 377 W/m 14,8 C 1,5 km/h (1 Bft)
01.07.2016 09:00 19,4 C 19,5 C 72 % 1017,4 hPa 0,0 mm 1,9 km/h (1 Bft) S 1,00 h 0,204 mm 3,6 UV-I 553 W/m 14,3 C 3,3 km/h (1 Bft)
01.07.2016 10:00 20,5 C 20,5 C 71 % 1017,3 hPa 0,0 mm 4,1 km/h (1 Bft) O-NO 0,92 h 0,330 mm 4,9 UV-I 689 W/m 15,1 C 6,6 km/h (2 Bft)
01.07.2016 11:00 21,4 C 21,4 C 68 % 1017,2 hPa 0,0 mm 5,0 km/h (1 Bft) O 0,85 h 0,406 mm 6,0 UV-I 776 W/m 15,1 C 8,1 km/h (2 Bft)
01.07.2016 12:00 21,9 C 22,0 C 66 % 1016,8 hPa 0,0 mm 4,4 km/h (1 Bft) NO 0,85 h 0,457 mm 7,1 UV-I 864 W/m 15,3 C 7,3 km/h (2 Bft)
01.07.2016 13:00 22,8 C 22,9 C 64 % 1016,3 hPa 0,0 mm 4,7 km/h (1 Bft) O-NO 0,77 h 0,534 mm 6,9 UV-I 842 W/m 15,6 C 7,7 km/h (2 Bft)
01.07.2016 14:00 22,9 C 23,0 C 63 % 1015,9 hPa 0,0 mm 4,2 km/h (1 Bft) NO 0,47 h 0,508 mm 6,0 UV-I 609 W/m 15,4 C 6,9 km/h (2 Bft)
01.07.2016 15:00 23,0 C 23,0 C 63 % 1015,5 hPa 0,0 mm 3,2 km/h (1 Bft) O-NO 0,18 h 0,406 mm 3,4 UV-I 344 W/m 15,4 C 5,1 km/h (1 Bft)
01.07.2016 16:00 22,9 C 22,9 C 64 % 1015,3 hPa 0,0 mm 2,5 km/h (1 Bft) O 0,20 h 0,254 mm 2,8 UV-I 339 W/m 15,6 C 4,6 km/h (1 Bft)
01.07.2016 17:00 23,1 C 23,1 C 62 % 1015,0 hPa 0,0 mm 2,4 km/h (1 Bft) O-NO 0,00 h 0,203 mm 1,9 UV-I 155 W/m 15,5 C 4,0 km/h (1 Bft)
01.07.2016 18:00 23,1 C 23,2 C 63 % 1014,8 hPa 0,0 mm 2,4 km/h (1 Bft) O-SO 0,20 h 0,102 mm 1,4 UV-I 187 W/m 15,8 C 4,4 km/h (1 Bft)
01.07.2016 19:00 22,9 C 22,9 C 64 % 1014,6 hPa 0,0 mm 1,4 km/h (1 Bft) O 0,90 h 0,127 mm 0,8 UV-I 174 W/m 15,7 C 3,0 km/h (1 Bft)
01.07.2016 20:00 21,2 C 21,3 C 70 % 1014,6 hPa 0,2 mm 1,4 km/h (1 Bft) O 0,00 h 0,127 mm 0,5 UV-I 39 W/m 15,6 C 2,5 km/h (1 Bft)
01.07.2016 21:00 17,8 C 17,8 C 84 % 1014,9 hPa 0,0 mm 0,7 km/h (0 Bft) O 0,00 h 0,025 mm 0,0 UV-I 6 W/m 15,1 C 1,5 km/h (1 Bft)
01.07.2016 22:00 17,0 C 17,0 C 87 % 1015,1 hPa 0,0 mm 0,7 km/h (0 Bft) SO 0,00 h 0,000 mm 0,0 UV-I 0 W/m 14,7 C 1,5 km/h (1 Bft)
01.07.2016 23:00 16,4 C 16,5 C 88 % 1015,0 hPa 0,0 mm 0,3 km/h (0 Bft) S-SW 0,00 h 0,000 mm 0,0 UV-I 0 W/m 14,5 C 0,9 km/h (0 Bft)
02.07.2016 00:00 16,2 C 16,2 C 89 % 1014,9 hPa 0,0 mm 0,3 km/h (0 Bft) W-NW 0,00 h 0,000 mm 0,0 UV-I 0 W/m 14,4 C 1,1 km/h (0 Bft)
02.07.2016 01:00 16,9 C 17,0 C 87 % 1014,6 hPa 0,0 mm 0,7 km/h (0 Bft) W-SW 0,00 h 0,000 mm 0,0 UV-I 0 W/m 14,8 C 1,7 km/h (1 Bft)
02.07.2016 02:00 17,4 C 17,5 C 84 % 1014,2 hPa 0,0 mm 1,0 km/h (0 Bft) S 0,00 h 0,000 mm 0,0 UV-I 0 W/m 14,6 C 2,4 km/h (1 Bft)
02.07.2016 03:00 17,1 C 17,2 C 83 % 1013,5 hPa 0,0 mm 0,7 km/h (0 Bft) S 0,00 h 0,025 mm 0,0 UV-I 0 W/m 14,2 C 1,8 km/h (1 Bft)
02.07.2016 04:00 17,3 C 17,4 C 80 % 1012,9 hPa 0,0 mm 0,6 km/h (0 Bft) N 0,00 h 0,026 mm 0,0 UV-I 0 W/m 13,9 C 1,6 km/h (1 Bft)
02.07.2016 05:00 17,1 C 17,2 C 81 % 1012,4 hPa 0,0 mm 0,8 km/h (0 Bft) NW 0,00 h 0,025 mm 0,0 UV-I 7 W/m 13,8 C 1,8 km/h (1 Bft)
02.07.2016 06:00 17,0 C 17,0 C 82 % 1012,2 hPa 0,0 mm 0,4 km/h (0 Bft) NW 0,02 h 0,000 mm 0,6 UV-I 42 W/m 13,9 C 1,3 km/h (1 Bft)
02.07.2016 07:00 19,1 C 19,1 C 73 % 1012,6 hPa 0,0 mm 2,5 km/h (1 Bft) W 0,83 h 0,026 mm 1,1 UV-I 227 W/m 14,2 C 4,0 km/h (1 Bft)
02.07.2016 08:00 20,5 C 20,5 C 70 % 1013,2 hPa 0,0 mm 8,6 km/h (2 Bft) W 0,97 h 0,152 mm 2,4 UV-I 439 W/m 14,9 C 13,5 km/h (3 Bft)
02.07.2016 09:00 21,1 C 21,1 C 72 % 1013,3 hPa 0,0 mm 8,0 km/h (2 Bft) W 0,62 h 0,305 mm 3,0 UV-I 468 W/m 15,8 C 12,2 km/h (2 Bft)
02.07.2016 10:00 20,9 C 21,0 C 71 % 1013,5 hPa 0,0 mm 11,8 km/h (2 Bft) W 0,40 h 0,279 mm 3,8 UV-I 443 W/m 15,5 C 18,2 km/h (3 Bft)
02.07.2016 11:00 19,9 C 20,0 C 75 % 1013,6 hPa 0,0 mm 7,9 km/h (2 Bft) W 0,02 h 0,330 mm 2,2 UV-I 231 W/m 15,5 C 12,9 km/h (3 Bft)
02.07.2016 12:00 19,3 C 19,4 C 75 % 1013,6 hPa 0,0 mm 6,2 km/h (2 Bft) W-NW 0,00 h 0,153 mm 1,4 UV-I 145 W/m 14,7 C 10,0 km/h (2 Bft)
02.07.2016 13:00 17,3 C 17,3 C 86 % 1013,8 hPa 1,6 mm 2,2 km/h (1 Bft) W 0,00 h 0,101 mm 0,9 UV-I 74 W/m 14,9 C 4,3 km/h (1 Bft)
02.07.2016 14:00 17,5 C 17,5 C 90 % 1013,6 hPa 0,2 mm 2,7 km/h (1 Bft) W 0,00 h 0,051 mm 1,7 UV-I 131 W/m 15,9 C 4,6 km/h (1 Bft)
02.07.2016 15:00 16,6 C 16,7 C 88 % 1014,0 hPa 1,0 mm 6,5 km/h (2 Bft) W 0,00 h 0,076 mm 1,0 UV-I 73 W/m 14,6 C 10,9 km/h (2 Bft)
02.07.2016 16:00 15,1 C 15,1 C 90 % 1014,8 hPa 0,4 mm 4,5 km/h (1 Bft) W-SW 0,00 h 0,051 mm 0,7 UV-I 73 W/m 13,5 C 7,9 km/h (2 Bft)
02.07.2016 17:00 15,3 C 15,3 C 89 % 1015,0 hPa 0,0 mm 4,4 km/h (1 Bft) W-SW 0,00 h 0,051 mm 0,6 UV-I 69 W/m 13,5 C 7,7 km/h (2 Bft)
02.07.2016 18:00 14,8 C 14,9 C 89 % 1015,6 hPa 0,0 mm 8,1 km/h (2 Bft) W-SW 0,00 h 0,051 mm 0,5 UV-I 48 W/m 13,0 C 13,3 km/h (3 Bft)
02.07.2016 19:00 14,3 C 14,3 C 89 % 1016,3 hPa 0,0 mm 6,1 km/h (2 Bft) W-SW 0,00 h 0,025 mm 0,0 UV-I 35 W/m 12,6 C 10,8 km/h (2 Bft)
02.07.2016 20:00 13,5 C 13,5 C 91 % 1017,3 hPa 1,4 mm 8,4 km/h (2 Bft) W-SW 0,00 h 0,026 mm 0,0 UV-I 8 W/m 12,1 C 14,3 km/h (3 Bft)
02.07.2016 21:00 12,8 C 12,8 C 94 % 1018,4 hPa 2,4 mm 4,1 km/h (1 Bft) W-NW 0,00 h 0,025 mm 0,0 UV-I 0 W/m 11,8 C 6,6 km/h (2 Bft)
02.07.2016 22:00 12,5 C 12,5 C 94 % 1019,1 hPa 0,6 mm 5,4 km/h (1 Bft) W-SW 0,00 h 0,000 mm 0,0 UV-I 0 W/m 11,6 C 8,7 km/h (2 Bft)
02.07.2016 23:00 11,4 C 11,4 C 92 % 1019,8 hPa 0,2 mm 6,1 km/h (2 Bft) W-SW 0,00 h 0,000 mm 0,0 UV-I 0 W/m 10,0 C 10,2 km/h (2 Bft)
03.07.2016 00:00 10,0 C 10,1 C 92 % 1020,1 hPa 0,0 mm 3,2 km/h (1 Bft) S 0,00 h 0,000 mm 0,0 UV-I 0 W/m 8,7 C 5,9 km/h (2 Bft)
03.07.2016 01:00 9,7 C 9,7 C 93 % 1020,1 hPa 0,0 mm 1,4 km/h (1 Bft) S 0,00 h 0,000 mm 0,0 UV-I 0 W/m 8,5 C 3,1 km/h (1 Bft)
03.07.2016 02:00 9,5 C 9,5 C 94 % 1020,4 hPa 0,0 mm 0,8 km/h (0 Bft) O-SO 0,00 h 0,000 mm 0,0 UV-I 0 W/m 8,5 C 1,9 km/h (1 Bft)
03.07.2016 03:00 9,4 C 9,4 C 95 % 1020,1 hPa 0,0 mm 0,4 km/h (0 Bft) O 0,00 h 0,000 mm 0,0 UV-I 0 W/m 8,5 C 1,5 km/h (1 Bft)
03.07.2016 04:00 9,5 C 9,5 C 94 % 1020,2 hPa 0,0 mm 0,6 km/h (0 Bft) SW 0,00 h 0,000 mm 0,0 UV-I 0 W/m 8,5 C 1,6 km/h (1 Bft)
03.07.2016 05:00 9,4 C 9,5 C 94 % 1020,2 hPa 0,0 mm 1,0 km/h (0 Bft) N 0,00 h 0,000 mm 0,0 UV-I 9 W/m 8,5 C 2,2 km/h (1 Bft)
03.07.2016 06:00 9,8 C 9,8 C 93 % 1020,4 hPa 0,0 mm 0,5 km/h (0 Bft) S-SW 0,00 h 0,000 mm 0,5 UV-I 37 W/m 8,7 C 1,4 km/h (1 Bft)
03.07.2016 07:00 10,8 C 10,8 C 90 % 1020,7 hPa 0,0 mm 1,0 km/h (0 Bft) W-SW 0,00 h 0,025 mm 0,6 UV-I 105 W/m 9,3 C 2,2 km/h (1 Bft)
03.07.2016 08:00 11,8 C 11,8 C 87 % 1021,0 hPa 0,0 mm 1,2 km/h (1 Bft) W 0,00 h 0,051 mm 1,1 UV-I 154 W/m 9,8 C 2,4 km/h (1 Bft)
03.07.2016 09:00 13,2 C 13,2 C 74 % 1021,2 hPa 0,0 mm 1,9 km/h (1 Bft) O-SO 0,62 h 0,076 mm 3,1 UV-I 456 W/m 8,6 C 3,3 km/h (1 Bft)
03.07.2016 10:00 14,6 C 14,7 C 68 % 1021,3 hPa 0,0 mm 3,3 km/h (1 Bft) W-NW 0,85 h 0,229 mm 4,5 UV-I 543 W/m 8,8 C 5,1 km/h (1 Bft)
03.07.2016 11:00 15,7 C 15,8 C 66 % 1021,3 hPa 0,0 mm 4,8 km/h (1 Bft) W 0,87 h 0,305 mm 6,1 UV-I 673 W/m 9,3 C 8,3 km/h (2 Bft)
03.07.2016 12:00 16,7 C 16,8 C 62 % 1021,0 hPa 0,0 mm 5,6 km/h (1 Bft) W-NW 0,65 h 0,406 mm 6,8 UV-I 788 W/m 9,5 C 9,3 km/h (2 Bft)
03.07.2016 13:00 17,3 C 17,4 C 60 % 1020,5 hPa 0,0 mm 8,4 km/h (2 Bft) W-NW 0,38 h 0,457 mm 6,7 UV-I 628 W/m 9,5 C 13,6 km/h (3 Bft)
03.07.2016 14:00 17,7 C 17,8 C 60 % 1020,1 hPa 0,0 mm 8,0 km/h (2 Bft) NW 0,63 h 0,432 mm 5,5 UV-I 584 W/m 9,8 C 12,7 km/h (3 Bft)
03.07.2016 15:00 17,6 C 17,6 C 61 % 1020,0 hPa 0,0 mm 6,0 km/h (2 Bft) W-NW 0,10 h 0,356 mm 3,6 UV-I 314 W/m 10,0 C 9,7 km/h (2 Bft)
03.07.2016 16:00 17,8 C 17,8 C 61 % 1020,1 hPa 0,0 mm 6,0 km/h (2 Bft) W-NW 0,00 h 0,228 mm 2,7 UV-I 264 W/m 10,2 C 9,9 km/h (2 Bft)
03.07.2016 17:00 18,1 C 18,2 C 60 % 1020,1 hPa 0,0 mm 5,8 km/h (2 Bft) W-NW 0,05 h 0,178 mm 2,1 UV-I 243 W/m 10,1 C 9,0 km/h (2 Bft)
03.07.2016 18:00 17,1 C 17,2 C 63 % 1020,5 hPa 0,0 mm 3,5 km/h (1 Bft) W-NW 0,00 h 0,178 mm 0,7 UV-I 95 W/m 10,0 C 5,5 km/h (1 Bft)
03.07.2016 19:00 16,2 C 16,3 C 69 % 1020,8 hPa 0,0 mm 0,8 km/h (0 Bft) W-SW 0,00 h 0,076 mm 0,5 UV-I 45 W/m 10,6 C 1,9 km/h (1 Bft)
03.07.2016 20:00 15,6 C 15,6 C 73 % 1021,3 hPa 0,0 mm 1,0 km/h (0 Bft) N-NW 0,00 h 0,026 mm 0,0 UV-I 21 W/m 10,8 C 2,1 km/h (1 Bft)
03.07.2016 21:00 14,9 C 14,9 C 73 % 1021,7 hPa 0,0 mm 1,3 km/h (1 Bft) O-NO 0,00 h 0,025 mm 0,0 UV-I 5 W/m 10,1 C 2,2 km/h (1 Bft)
03.07.2016 22:00 13,6 C 13,6 C 83 % 1022,1 hPa 0,0 mm 0,3 km/h (0 Bft) O-SO 0,00 h 0,000 mm 0,0 UV-I 0 W/m 10,7 C 0,7 km/h (0 Bft)
03.07.2016 23:00 13,1 C 13,1 C 83 % 1022,2 hPa 0,0 mm 0,3 km/h (0 Bft) O-SO 0,00 h 0,025 mm 0,0 UV-I 0 W/m 10,2 C 0,7 km/h (0 Bft)
Min-Datum _ 03.07.16 03.07.16 28.06.16 30.06.16 - 03.07.16 - - - - - 27.06.16 03.07.16
_ Min-Zeit 05:09 05:10 15:02 02:42 - 23:00 - - - - - 18:44 23:00
Minimum _ 9,3 C 9,3 C 44 % 1011,4 hPa - 0,0 km/h (0 Bft) - - - - - 6,7 C 0,0 km/h (0 Bft)
Max-Datum _ 01.07.16 01.07.16 27.06.16 03.07.16 30.06.16 30.06.16 - 02.07.16 28.06.16 03.07.16 03.07.16 01.07.16 02.07.16
_ Max-Zeit 16:14 16:14 07:55 22:32 19:37 07:39 - 08:09 15:00 13:21 14:01 17:00 18:54
Maximum _ 23,8 C 23,8 C 97 % 1022,3 hPa 7,2 mm 21,1 km/h
W-SW (4 Bft)
- 0,03 h 0,559 mm 9,0 UV-I 1222 W/m 17,4 C 30,6 km/h
W (5 Bft)
Durchschnitt _ 16,5 C 16,5 C 77 % 1016,7 hPa #30,4 mm 2,9 km/h (1 Bft) W #35:09 h #20,801 mm 2,9 UV-I 195 W/m 12,3 C 5,1 km/h (1 Bft)